To NAV CANADA Home Page Login to a new session Search on AWWS site Feedback and Comments Disclaimer Vers la page française équivalente Tips FAQ What's new on the site To the Forecasts and Observations / NOTAM section To "File a Flight Plan" website Publications and other links Update of the User's profile FIC Telephone Numbers My Weather Data Folder Route Weather Data Regional Weather Data Local Weather Data To the Forecasts and Observations / NOTAM section
Request Generated 06/26/2017 at 03:36:49 UTC . Weather information available at that time is displayed.

METAR/TAF

LYNN LAKE/MB    (show WxCam)

METAR CYYL 260300Z AUTO 29004KT 9SM CLR 17/05 A3009 RMK SLP200
DENSITY ALT 1500FT=
METAR CYYL 260200Z AUTO 33009KT 300V010 9SM CLR 20/03 A3010 RMK
SLP203 DENSITY ALT 1700FT=
METAR CYYL 260100Z AUTO 36006KT 9SM CLR 19/02 A3011 RMK SLP207
DENSITY ALT 1700FT=

TAF CYYL 260038Z 2601/2613 32012G22KT P6SM FEW080 TEMPO 2601/2606
BKN080
BECMG 2604/2606 28010KT
RMK FCST BASED ON AUTO OBS. NXT FCST BY 260700Z=
Your time UTC time
Weather data provided by Environment Canada and NAV CANADA